createdAt,value
2023-02-09T00:02:39.467Z,0.32
2023-02-09T00:07:41.066Z,0.27
2023-02-09T00:13:01.398Z,0.29
2023-02-09T00:18:02.960Z,0.27
2023-02-09T00:23:04.532Z,0.32
2023-02-09T00:28:06.555Z,0.21
2023-02-09T00:33:08.145Z,0.27
2023-02-09T00:38:11.249Z,0.27
2023-02-09T00:43:12.910Z,0.18
2023-02-09T00:48:14.501Z,0.10
2023-02-09T00:53:16.243Z,0.16
2023-02-09T00:58:18.427Z,0.04
2023-02-09T01:03:19.973Z,-0.02
2023-02-09T01:08:21.562Z,-0.04
2023-02-09T01:13:23.106Z,-0.05
2023-02-09T01:18:24.662Z,-0.05
2023-02-09T01:23:26.238Z,-0.16
2023-02-09T01:28:27.850Z,-0.11
2023-02-09T01:33:30.595Z,-0.13
2023-02-09T01:38:32.209Z,0.04
2023-02-09T01:43:57.999Z,-0.18
2023-02-09T01:49:05.039Z,-0.01
2023-02-09T01:54:10.196Z,-0.13
2023-02-09T01:59:11.986Z,-0.17
2023-02-09T02:04:14.553Z,-0.21
2023-02-09T02:09:17.252Z,-0.16
2023-02-09T02:14:32.963Z,-0.44
2023-02-09T02:19:49.772Z,-0.28
2023-02-09T02:25:16.441Z,-0.30
2023-02-09T02:30:41.965Z,-0.33
2023-02-09T02:35:52.149Z,-0.40
2023-02-09T02:41:20.368Z,-0.43
2023-02-09T02:46:33.031Z,-0.36
2023-02-09T02:51:43.617Z,-0.36
2023-02-09T02:56:55.031Z,-0.37
2023-02-09T03:02:01.012Z,-0.48
2023-02-09T03:07:06.989Z,-0.64
2023-02-09T03:12:17.672Z,-0.58
2023-02-09T03:17:32.900Z,-0.70
2023-02-09T03:22:39.990Z,-0.67
2023-02-09T03:27:44.864Z,-0.70
2023-02-09T03:32:46.925Z,-0.77
2023-02-09T03:37:48.511Z,-0.73
2023-02-09T03:42:50.160Z,-0.70
2023-02-09T03:47:51.784Z,-0.67
2023-02-09T03:52:53.356Z,-0.75
2023-02-09T03:57:54.982Z,-0.51
2023-02-09T04:02:56.564Z,-0.69
2023-02-09T04:08:00.430Z,-0.76
2023-02-09T04:13:02.092Z,-0.52
2023-02-09T04:18:03.735Z,-0.60
2023-02-09T04:23:05.313Z,-0.74
2023-02-09T04:28:07.063Z,-0.80
2023-02-09T04:33:08.634Z,-1.06
2023-02-09T04:38:10.199Z,-1.14
2023-02-09T04:43:11.877Z,-1.01
2023-02-09T04:48:15.714Z,-1.30
2023-02-09T04:53:17.943Z,-1.39
2023-02-09T04:58:39.410Z,-1.37
2023-02-09T05:03:42.497Z,-1.66
2023-02-09T05:08:44.412Z,-1.81
2023-02-09T05:13:46.251Z,-1.65
2023-02-09T05:18:50.276Z,-1.88
2023-02-09T05:23:51.919Z,-1.78
2023-02-09T05:28:53.544Z,-1.80
2023-02-09T05:33:55.106Z,-2.08
2023-02-09T05:38:56.721Z,-1.97
2023-02-09T05:43:58.439Z,-2.12
2023-02-09T05:49:00.140Z,-2.19
2023-02-09T05:54:01.779Z,-2.28
2023-02-09T05:59:04.616Z,-2.31
2023-02-09T06:04:06.983Z,-2.32
2023-02-09T06:09:08.612Z,-2.35
2023-02-09T06:14:10.613Z,-2.52
2023-02-09T06:19:17.717Z,-2.21
2023-02-09T06:24:19.284Z,-2.22
2023-02-09T06:29:20.843Z,-2.51
2023-02-09T06:34:22.465Z,-2.46
2023-02-09T06:39:24.311Z,-2.49
2023-02-09T06:44:25.883Z,-2.38
2023-02-09T06:49:27.510Z,-2.69
2023-02-09T06:54:29.316Z,-2.56
2023-02-09T06:59:30.876Z,-2.51
2023-02-09T07:04:32.408Z,-2.60
2023-02-09T07:09:34.103Z,-2.41
2023-02-09T07:14:35.692Z,-2.42
2023-02-09T07:19:37.296Z,-2.43
2023-02-09T07:24:38.871Z,-2.33
2023-02-09T07:29:40.511Z,-2.38
2023-02-09T07:34:42.096Z,-2.64
2023-02-09T07:39:44.170Z,-2.32
2023-02-09T07:44:45.819Z,-2.41
2023-02-09T07:49:47.405Z,-2.33
2023-02-09T07:54:50.617Z,-2.22
2023-02-09T07:59:52.145Z,-1.95
2023-02-09T08:04:56.000Z,-1.98
2023-02-09T08:09:57.594Z,-1.96
2023-02-09T08:14:59.402Z,-1.86
2023-02-09T08:20:05.991Z,-1.70
2023-02-09T08:25:08.350Z,-1.78
2023-02-09T08:30:11.158Z,-1.71
2023-02-09T08:35:12.827Z,-1.66
2023-02-09T08:40:15.179Z,-1.49
2023-02-09T08:45:16.888Z,-1.42
2023-02-09T08:50:18.590Z,-1.39
2023-02-09T08:55:20.148Z,-1.30
2023-02-09T09:00:21.846Z,-1.21
2023-02-09T09:05:23.403Z,-1.10
2023-02-09T09:10:25.006Z,-0.99
2023-02-09T09:15:26.544Z,-0.90
2023-02-09T09:20:28.418Z,-0.85
2023-02-09T09:25:30.036Z,-0.73
2023-02-09T09:30:32.101Z,-0.64
2023-02-09T09:35:33.674Z,-0.46
2023-02-09T09:40:37.720Z,-0.38
2023-02-09T09:45:39.664Z,-0.30
2023-02-09T09:50:42.902Z,-0.29
2023-02-09T09:55:45.314Z,-0.27
2023-02-09T10:00:47.805Z,-0.12
2023-02-09T10:05:55.498Z,-0.05
2023-02-09T10:11:06.793Z,0.03
2023-02-09T10:16:17.303Z,0.13
2023-02-09T10:21:19.482Z,0.21
2023-02-09T10:26:24.132Z,0.40
2023-02-09T10:31:34.419Z,0.42
2023-02-09T10:36:38.286Z,0.42
2023-02-09T10:41:41.959Z,0.47
2023-02-09T10:46:43.580Z,0.59
2023-02-09T10:51:45.152Z,0.74
2023-02-09T10:56:48.608Z,0.77
2023-02-09T11:01:58.504Z,0.99
2023-02-09T11:07:02.879Z,1.11
2023-02-09T11:12:04.660Z,1.18
2023-02-09T11:17:24.243Z,1.62
2023-02-09T11:22:34.910Z,1.36
2023-02-09T11:28:04.325Z,1.45
2023-02-09T11:33:20.833Z,1.47
2023-02-09T11:38:37.038Z,1.71
2023-02-09T11:43:41.016Z,1.70
2023-02-09T11:48:48.817Z,1.84
2023-02-09T11:53:53.051Z,1.99
2023-02-09T11:58:57.369Z,1.94
2023-02-09T12:04:25.073Z,2.07
2023-02-09T12:09:39.047Z,2.00
2023-02-09T12:14:44.231Z,2.16
2023-02-09T12:19:54.939Z,2.39
2023-02-09T12:25:05.847Z,2.27
2023-02-09T12:30:41.418Z,2.25
2023-02-09T12:35:44.154Z,2.29
2023-02-09T12:41:04.386Z,2.49
2023-02-09T12:46:31.009Z,2.48
2023-02-09T12:51:47.789Z,2.55
2023-02-09T12:56:49.374Z,2.58
2023-02-09T13:02:06.226Z,2.68
2023-02-09T13:07:31.640Z,2.78
2023-02-09T13:12:38.005Z,2.74
2023-02-09T13:18:06.535Z,2.73
2023-02-09T13:23:29.308Z,2.83
2023-02-09T13:28:30.991Z,2.77
2023-02-09T13:33:44.489Z,2.89
2023-02-09T13:38:46.408Z,2.97
2023-02-09T13:43:48.231Z,2.95
2023-02-09T13:48:49.817Z,2.98
2023-02-09T13:53:59.945Z,3.07
2023-02-09T13:59:01.615Z,2.99
2023-02-09T14:04:19.945Z,3.03
2023-02-09T14:09:25.104Z,3.03
2023-02-09T14:14:49.408Z,3.10
2023-02-09T14:19:52.225Z,3.00
2023-02-09T14:24:53.888Z,2.94
2023-02-09T14:29:55.943Z,3.10
2023-02-09T14:34:57.576Z,3.05
2023-02-09T14:40:04.372Z,3.01
2023-02-09T14:45:14.744Z,2.98
2023-02-09T14:50:22.008Z,2.96
2023-02-09T14:55:28.541Z,3.03
2023-02-09T15:00:30.143Z,2.90
2023-02-09T15:05:31.713Z,2.92
2023-02-09T15:10:36.440Z,2.86
2023-02-09T15:15:39.684Z,2.83
2023-02-09T15:20:41.320Z,2.77
2023-02-09T15:25:43.674Z,2.66
2023-02-09T15:30:45.816Z,2.69
2023-02-09T15:35:48.349Z,2.68
2023-02-09T15:41:09.085Z,2.65
2023-02-09T15:46:10.842Z,2.51
2023-02-09T15:51:12.555Z,2.52
2023-02-09T15:56:14.943Z,2.49
2023-02-09T16:01:17.422Z,2.31
2023-02-09T16:06:26.968Z,2.25
2023-02-09T16:11:35.156Z,2.16
2023-02-09T16:16:37.382Z,2.22
2023-02-09T16:21:39.365Z,2.07
2023-02-09T16:26:41.123Z,2.10
2023-02-09T16:31:42.798Z,2.00
2023-02-09T16:36:45.301Z,1.87
2023-02-09T16:41:47.856Z,1.82
2023-02-09T16:46:52.570Z,1.78
2023-02-09T16:51:56.288Z,1.81
2023-02-09T16:56:57.891Z,1.67
2023-02-09T17:01:59.977Z,1.67
2023-02-09T17:07:01.608Z,1.54
2023-02-09T17:18:39.674Z,1.45
2023-02-09T17:23:42.682Z,1.45
2023-02-09T17:28:44.293Z,1.42
2023-02-09T17:33:47.720Z,1.42
2023-02-09T17:38:50.284Z,1.35
2023-02-09T17:43:52.851Z,1.39
2023-02-09T17:48:54.435Z,1.38
2023-02-09T17:53:55.995Z,1.34
2023-02-09T17:58:57.826Z,1.23
2023-02-09T18:04:02.715Z,1.23
2023-02-09T18:09:07.038Z,1.34
2023-02-09T18:14:12.489Z,1.28
2023-02-09T18:19:14.318Z,1.31
2023-02-09T18:24:16.754Z,1.23
2023-02-09T18:29:20.259Z,1.17
2023-02-09T18:34:22.075Z,1.07
2023-02-09T18:39:23.657Z,1.14
2023-02-09T18:44:29.182Z,1.03
2023-02-09T18:49:31.102Z,0.92
2023-02-09T18:54:33.562Z,0.92
2023-02-09T18:59:36.194Z,0.92
2023-02-09T19:04:37.801Z,0.89
2023-02-09T19:09:40.433Z,0.96
2023-02-09T19:14:45.439Z,0.97
2023-02-09T19:19:47.824Z,0.93
2023-02-09T19:24:51.284Z,0.96
2023-02-09T19:29:55.773Z,0.93
2023-02-09T19:34:57.403Z,0.91
2023-02-09T19:40:07.273Z,0.94
2023-02-09T19:45:09.305Z,0.96
2023-02-09T19:50:11.307Z,1.20
2023-02-09T19:55:13.684Z,1.12
2023-02-09T20:00:18.145Z,1.01
2023-02-09T20:05:19.719Z,0.97
2023-02-09T20:10:23.823Z,0.97
2023-02-09T20:15:25.545Z,0.93
2023-02-09T20:20:27.145Z,0.91
2023-02-09T20:25:29.427Z,0.94
2023-02-09T20:30:31.492Z,0.86
2023-02-09T20:35:33.075Z,0.91
2023-02-09T20:40:35.167Z,0.89
2023-02-09T20:45:55.449Z,0.88
2023-02-09T20:50:57.143Z,0.94
2023-02-09T20:55:59.186Z,0.82
2023-02-09T21:01:00.824Z,0.85
2023-02-09T21:06:02.450Z,0.84
2023-02-09T21:11:04.334Z,0.88
2023-02-09T21:16:05.956Z,0.78
2023-02-09T21:21:08.787Z,0.74
2023-02-09T21:26:13.981Z,0.73
2023-02-09T21:31:18.487Z,0.72
2023-02-09T21:36:20.139Z,0.78
2023-02-09T21:41:42.381Z,0.72
2023-02-09T21:46:44.061Z,0.68
2023-02-09T21:51:45.785Z,0.64
2023-02-09T21:56:47.358Z,0.64
2023-02-09T22:01:48.931Z,0.67
2023-02-09T22:06:50.551Z,0.64
2023-02-09T22:11:52.182Z,0.57
2023-02-09T22:16:53.745Z,0.48
2023-02-09T22:21:57.895Z,0.53
2023-02-09T22:26:59.508Z,0.35
2023-02-09T22:32:01.126Z,0.45
2023-02-09T22:37:02.739Z,0.40
2023-02-09T22:42:04.683Z,0.30
2023-02-09T22:47:06.252Z,0.33
2023-02-09T22:52:08.705Z,0.19
2023-02-09T22:57:10.335Z,0.32
2023-02-09T23:02:12.678Z,0.17
2023-02-09T23:07:14.387Z,0.42
2023-02-09T23:12:16.000Z,0.43
2023-02-09T23:17:17.570Z,0.19
2023-02-09T23:22:19.226Z,0.03
2023-02-09T23:27:20.763Z,0.08
2023-02-09T23:32:22.322Z,0.06
2023-02-09T23:37:37.355Z,0.00
2023-02-09T23:42:39.610Z,0.05
2023-02-09T23:47:41.244Z,0.14
2023-02-09T23:52:42.895Z,0.08
2023-02-09T23:57:44.482Z,-0.01
